Palm Beach International Airport
KPBI : rendu visible

Aérodrome :











RETROUVEZ-NOUS SUR...

 
LOGIN :

S'inscrire | Disclaimer

   EN    FR    IT 

 









Légende :    VFR   VFR Marginal   IFR   IFR Intensif   IFR Très Intensif
Visi : 
Plafond : 
>= 8 km
>= 3000ft
5 à 8 km
1000 à 3000 ft
1500m à 5 km
500 à 1000 ft
800 à 1500m
200 à 500 ft
< 800m
< 200 ft
Symboles :   Orages  Brouillard  Fortes neiges  Fortes précipitations  Vent > 20 kt






- Altitude de l'aérodrome : 19 ft
- Code IATA : PBI


KPBI - Palm Beach International

DERNIER METAR :
  • 201653Z 31009KT 10SM FEW250 23/08 A3013 RMK AO2 SLP201 T02330078

METARs EXPIRÉS :
  • 201553Z 01011KT 10SM FEW250 23/07 A3014 RMK AO2 SLP205 T02280072
  • 201453Z 35013KT 10SM FEW250 22/06 A3014 RMK AO2 SLP206 T02170061 51019

TAF KPBI
Valide du 20 à 15h jusqu'au 21 à 12h UTC


201510Z 2015/2112 35012KT P6SM FEW250
FM210200 01006KT P6SM FEW040



MET'MAP, la Météo Aéronautique d'un coup d'oeil ! - Copyright ORBIFLY Décembre 2007 - Disclaimer

ORBIFLY MET'MAP TEAM :

Programmation & Développement : Alexandra Zaïnal
Conception & Développement : Baudouin d'Aumeries
Co-Programmation & Développement : Marc-Olivier Méhu
Soutien technique & logistique : Manuel Goepfert

Contact : metmap@orbifly.com




SOURCES & CREDITS :

   NOAA       Earth
Advisory